createdAt,value
2018-08-11T00:00:00.816Z,57.28
2018-08-11T00:00:10.880Z,57.56
2018-08-11T00:00:20.934Z,57.44
2018-08-11T00:00:30.955Z,57.44
2018-08-11T00:00:40.956Z,57.46
2018-08-11T00:00:50.966Z,57.56
2018-08-11T00:01:00.992Z,57.46
2018-08-11T00:01:11.005Z,57.56
2018-08-11T00:01:20.995Z,57.56
2018-08-11T00:01:30.996Z,57.54
2018-08-11T00:01:41.026Z,57.46
2018-08-11T00:01:51.036Z,57.37
2018-08-11T00:02:01.037Z,57.54
2018-08-11T00:02:11.058Z,57.46
2018-08-11T00:02:21.065Z,57.34
2018-08-11T00:02:31.106Z,57.37
2018-08-11T00:02:41.106Z,57.46
2018-08-11T00:02:51.106Z,57.46
2018-08-11T00:03:01.125Z,57.37
2018-08-11T00:03:11.137Z,57.37
2018-08-11T00:03:21.143Z,57.37
2018-08-11T00:03:31.196Z,57.37
2018-08-11T00:03:41.164Z,57.34
2018-08-11T00:03:51.186Z,57.34
2018-08-11T00:04:01.197Z,57.37
2018-08-11T00:04:11.215Z,57.44
2018-08-11T00:04:21.222Z,57.24
2018-08-11T00:04:31.257Z,57.24
2018-08-11T00:04:41.277Z,57.28
2018-08-11T00:04:51.267Z,57.28
2018-08-11T00:05:01.300Z,57.37
2018-08-11T00:05:11.307Z,57.28
2018-08-11T00:05:21.296Z,57.44
2018-08-11T00:05:31.337Z,57.28
2018-08-11T00:05:41.326Z,57.28
2018-08-11T00:05:51.336Z,57.56
2018-08-11T00:06:01.386Z,57.46
2018-08-11T00:06:11.386Z,57.54
2018-08-11T00:06:21.387Z,57.28
2018-08-11T00:06:31.472Z,57.34
2018-08-11T00:06:41.437Z,57.34
2018-08-11T00:06:51.425Z,57.37
2018-08-11T00:07:01.467Z,57.37
2018-08-11T00:07:11.526Z,57.28
2018-08-11T00:07:21.737Z,57.56
2018-08-11T00:07:31.486Z,57.37
2018-08-11T00:07:41.507Z,57.28
2018-08-11T00:07:51.507Z,57.56
2018-08-11T00:08:01.545Z,57.37
2018-08-11T00:08:11.573Z,57.46
2018-08-11T00:08:21.536Z,57.37
2018-08-11T00:08:31.576Z,57.56
2018-08-11T00:08:41.594Z,57.46
2018-08-11T00:08:51.619Z,57.56
2018-08-11T00:09:01.615Z,57.56
2018-08-11T00:09:11.647Z,57.46
2018-08-11T00:09:21.657Z,57.44
2018-08-11T00:09:31.666Z,57.66
2018-08-11T00:09:41.697Z,57.46
2018-08-11T00:09:51.677Z,57.46
2018-08-11T00:10:01.706Z,57.46
2018-08-11T00:10:11.721Z,57.46
2018-08-11T00:10:21.747Z,57.46
2018-08-11T00:10:31.736Z,57.46
2018-08-11T00:10:41.747Z,57.37
2018-08-11T00:10:51.777Z,57.66
2018-08-11T00:11:01.757Z,57.66
2018-08-11T00:11:11.777Z,57.54
2018-08-11T00:11:21.817Z,57.66
2018-08-11T00:11:31.818Z,57.46
2018-08-11T00:11:41.844Z,57.44
2018-08-11T00:11:51.850Z,57.56
2018-08-11T00:12:01.868Z,57.46
2018-08-11T00:12:12.186Z,57.76
2018-08-11T00:12:21.905Z,57.56
2018-08-11T00:12:31.909Z,57.46
2018-08-11T00:12:41.907Z,57.76
2018-08-11T00:12:51.937Z,57.56
2018-08-11T00:13:01.952Z,57.56
2018-08-11T00:13:11.958Z,57.46
2018-08-11T00:13:21.967Z,57.56
2018-08-11T00:13:32.007Z,57.56
2018-08-11T00:13:41.978Z,57.56
2018-08-11T00:13:52.001Z,57.56
2018-08-11T00:14:02.056Z,57.46
2018-08-11T00:14:12.018Z,57.46
2018-08-11T00:14:22.047Z,57.37
2018-08-11T00:14:32.078Z,57.37
2018-08-11T00:14:42.108Z,57.54
2018-08-11T00:14:52.118Z,57.56
2018-08-11T00:15:02.137Z,57.56
2018-08-11T00:15:11.828Z,57.56
2018-08-11T00:15:22.119Z,57.54
2018-08-11T00:15:31.877Z,57.56
2018-08-11T00:15:42.150Z,57.54
2018-08-11T00:15:52.157Z,57.37
2018-08-11T00:16:02.196Z,57.28
2018-08-11T00:16:12.238Z,57.56
2018-08-11T00:16:22.223Z,57.44
2018-08-11T00:16:32.238Z,57.54
2018-08-11T00:16:42.258Z,57.56
2018-08-11T00:16:52.258Z,57.56
2018-08-11T00:17:02.277Z,57.56
2018-08-11T00:17:12.315Z,57.46
2018-08-11T00:17:22.308Z,57.44
2018-08-11T00:17:32.298Z,57.46
2018-08-11T00:17:42.338Z,57.46
2018-08-11T00:17:52.347Z,57.56
2018-08-11T00:18:02.373Z,57.46
2018-08-11T00:18:12.367Z,57.46
2018-08-11T00:18:22.357Z,57.86
2018-08-11T00:18:32.428Z,57.44
2018-08-11T00:18:42.408Z,57.46
2018-08-11T00:18:52.415Z,57.44
2018-08-11T00:19:02.420Z,57.44
2018-08-11T00:19:12.438Z,57.66
2018-08-11T00:19:22.468Z,57.37
2018-08-11T00:19:32.478Z,57.56
2018-08-11T00:19:42.199Z,57.46
2018-08-11T00:19:52.519Z,57.56
2018-08-11T00:20:02.507Z,57.56
2018-08-11T00:20:12.547Z,57.66
2018-08-11T00:20:22.549Z,57.66
2018-08-11T00:20:32.568Z,57.46
2018-08-11T00:20:42.297Z,57.46
2018-08-11T00:20:52.589Z,57.44
2018-08-11T00:21:02.578Z,57.56
2018-08-11T00:21:12.628Z,57.46
2018-08-11T00:21:22.638Z,57.56
2018-08-11T00:21:32.641Z,57.46
2018-08-11T00:21:42.628Z,57.66
2018-08-11T00:21:52.689Z,57.76
2018-08-11T00:22:02.412Z,57.66
2018-08-11T00:22:12.409Z,57.46
2018-08-11T00:22:22.707Z,57.66
2018-08-11T00:22:32.738Z,57.46
2018-08-11T00:22:42.738Z,57.66
2018-08-11T00:22:52.746Z,57.46
2018-08-11T00:23:02.768Z,57.54
2018-08-11T00:23:12.788Z,57.66
2018-08-11T00:23:22.798Z,57.37
2018-08-11T00:23:32.808Z,57.66
2018-08-11T00:23:42.805Z,57.44
2018-08-11T00:23:52.828Z,57.37
2018-08-11T00:24:02.859Z,57.37
2018-08-11T00:24:12.858Z,57.66
2018-08-11T00:24:22.878Z,57.56
2018-08-11T00:24:32.889Z,57.56
2018-08-11T00:24:42.882Z,57.34
2018-08-11T00:24:52.918Z,57.37
2018-08-11T00:25:02.942Z,57.37
2018-08-11T00:25:12.929Z,57.34
2018-08-11T00:25:22.958Z,57.56
2018-08-11T00:25:32.978Z,57.37
2018-08-11T00:25:42.978Z,57.44
2018-08-11T00:25:52.989Z,57.37
2018-08-11T00:26:02.997Z,57.28
2018-08-11T00:26:13.038Z,57.24
2018-08-11T00:26:23.018Z,57.24
2018-08-11T00:26:33.059Z,57.66
2018-08-11T00:26:43.109Z,57.56
2018-08-11T00:26:53.080Z,57.54
2018-08-11T00:27:03.090Z,57.63
2018-08-11T00:27:13.110Z,57.44
2018-08-11T00:27:23.110Z,57.28
2018-08-11T00:27:33.129Z,57.28
2018-08-11T00:27:43.169Z,57.56
2018-08-11T00:27:53.169Z,57.66
2018-08-11T00:28:03.189Z,57.54
2018-08-11T00:28:13.189Z,57.63
2018-08-11T00:28:23.189Z,57.73
2018-08-11T00:28:33.209Z,57.44
2018-08-11T00:28:43.212Z,57.66
2018-08-11T00:28:53.220Z,57.37
2018-08-11T00:29:03.240Z,57.34
2018-08-11T00:29:13.260Z,57.37
2018-08-11T00:29:23.299Z,57.46
2018-08-11T00:29:33.280Z,57.28
2018-08-11T00:29:43.311Z,57.37
2018-08-11T00:29:53.339Z,57.37
2018-08-11T00:30:03.339Z,57.54
2018-08-11T00:30:13.339Z,57.56
2018-08-11T00:30:23.384Z,57.37
2018-08-11T00:30:33.359Z,57.34
2018-08-11T00:30:43.390Z,57.15
2018-08-11T00:30:53.421Z,57.34
2018-08-11T00:31:03.419Z,57.28
2018-08-11T00:31:13.460Z,57.15
2018-08-11T00:31:23.457Z,57.15
2018-08-11T00:31:33.470Z,57.24
2018-08-11T00:31:43.467Z,57.28
2018-08-11T00:31:53.513Z,57.37
2018-08-11T00:32:03.498Z,57.28
2018-08-11T00:32:13.590Z,57.18
2018-08-11T00:32:23.539Z,57.28
2018-08-11T00:32:33.558Z,57.24
2018-08-11T00:32:43.549Z,57.37
2018-08-11T00:32:53.579Z,57.08
2018-08-11T00:33:03.619Z,57.18
2018-08-11T00:33:13.599Z,57.15
2018-08-11T00:33:23.629Z,57.05
2018-08-11T00:33:33.649Z,56.95
2018-08-11T00:33:43.643Z,56.98
2018-08-11T00:33:53.661Z,56.88
2018-08-11T00:34:03.679Z,56.95
2018-08-11T00:34:13.690Z,56.88
2018-08-11T00:34:23.690Z,56.98
2018-08-11T00:34:33.726Z,56.86
2018-08-11T00:34:43.710Z,57.05
2018-08-11T00:34:53.750Z,56.98
2018-08-11T00:35:03.785Z,56.98
2018-08-11T00:35:13.764Z,56.86
2018-08-11T00:35:23.791Z,56.95
2018-08-11T00:35:33.800Z,57.15
2018-08-11T00:35:43.804Z,56.98
2018-08-11T00:35:53.831Z,57.08
2018-08-11T00:36:03.840Z,57.18
2018-08-11T00:36:13.850Z,57.15
2018-08-11T00:36:23.932Z,56.98
2018-08-11T00:36:34.109Z,56.98
2018-08-11T00:36:43.901Z,57.37
2018-08-11T00:36:53.921Z,57.15
2018-08-11T00:37:03.911Z,57.37
2018-08-11T00:37:13.950Z,57.28
2018-08-11T00:37:23.965Z,56.88
2018-08-11T00:37:33.710Z,57.37
2018-08-11T00:37:44.010Z,57.05
2018-08-11T00:37:53.994Z,57.18
2018-08-11T00:38:04.003Z,57.18
2018-08-11T00:38:14.031Z,57.28
2018-08-11T00:38:24.031Z,57.18
2018-08-11T00:38:33.751Z,57.24
2018-08-11T00:38:44.052Z,57.15
2018-08-11T00:38:54.039Z,57.24
2018-08-11T00:39:04.086Z,57.46
2018-08-11T00:39:14.362Z,57.15
2018-08-11T00:39:24.131Z,57.28
2018-08-11T00:39:34.099Z,57.24
2018-08-11T00:39:44.151Z,57.15
2018-08-11T00:39:54.160Z,57.15
2018-08-11T00:40:04.160Z,57.24
2018-08-11T00:40:14.178Z,57.24
2018-08-11T00:40:24.194Z,57.18
2018-08-11T00:40:34.199Z,57.34
2018-08-11T00:40:44.201Z,57.34
2018-08-11T00:40:54.259Z,57.37
2018-08-11T00:41:04.243Z,57.37
2018-08-11T00:41:14.245Z,57.44
2018-08-11T00:41:24.290Z,57.28
2018-08-11T00:41:34.262Z,57.15
2018-08-11T00:41:44.331Z,57.24
2018-08-11T00:41:54.301Z,57.24
2018-08-11T00:42:04.310Z,57.34
2018-08-11T00:42:14.351Z,57.56
2018-08-11T00:42:24.370Z,57.28
2018-08-11T00:42:34.381Z,57.34
2018-08-11T00:42:44.101Z,57.37
2018-08-11T00:42:54.389Z,57.34
2018-08-11T00:43:04.412Z,57.18
2018-08-11T00:43:14.423Z,57.44
2018-08-11T00:43:24.445Z,57.37
2018-08-11T00:43:34.491Z,57.28
2018-08-11T00:43:44.461Z,57.56
2018-08-11T00:43:54.471Z,57.54
2018-08-11T00:44:04.518Z,57.34
2018-08-11T00:44:14.492Z,57.34
2018-08-11T00:44:24.521Z,57.24
2018-08-11T00:44:34.531Z,57.37
2018-08-11T00:44:44.531Z,57.34
2018-08-11T00:44:54.551Z,57.34
2018-08-11T00:45:04.581Z,57.56
2018-08-11T00:45:14.582Z,57.34
2018-08-11T00:45:24.592Z,57.54
2018-08-11T00:45:34.616Z,57.34
2018-08-11T00:45:44.622Z,57.56
2018-08-11T00:45:54.633Z,57.56
2018-08-11T00:46:04.652Z,57.56
2018-08-11T00:46:14.407Z,57.56
2018-08-11T00:46:24.681Z,57.34
2018-08-11T00:46:34.692Z,57.34
2018-08-11T00:46:44.701Z,57.56
2018-08-11T00:46:54.712Z,57.66
2018-08-11T00:47:04.722Z,57.28
2018-08-11T00:47:14.752Z,57.76
2018-08-11T00:47:24.761Z,57.66
2018-08-11T00:47:34.812Z,57.46
2018-08-11T00:47:44.800Z,57.66
2018-08-11T00:47:54.782Z,57.56
2018-08-11T00:48:04.800Z,57.66
2018-08-11T00:48:14.831Z,57.34
2018-08-11T00:48:24.863Z,57.34
2018-08-11T00:48:34.861Z,57.46
2018-08-11T00:48:44.886Z,57.46
2018-08-11T00:48:54.911Z,57.46
2018-08-11T00:49:04.902Z,57.44
2018-08-11T00:49:14.911Z,57.44
2018-08-11T00:49:25.005Z,57.46
2018-08-11T00:49:35.132Z,57.56
2018-08-11T00:49:44.963Z,57.56
2018-08-11T00:49:54.983Z,57.46
2018-08-11T00:50:04.983Z,57.44
2018-08-11T00:50:14.722Z,57.46
2018-08-11T00:50:25.013Z,57.56
2018-08-11T00:50:35.003Z,57.76
2018-08-11T00:50:45.023Z,57.76
2018-08-11T00:50:55.053Z,57.76
2018-08-11T00:51:05.044Z,57.46
2018-08-11T00:51:15.073Z,57.56
2018-08-11T00:51:25.071Z,57.44
2018-08-11T00:51:35.093Z,57.54
2018-08-11T00:51:45.123Z,57.56
2018-08-11T00:51:54.883Z,57.37
2018-08-11T00:52:05.141Z,57.46
2018-08-11T00:52:15.183Z,57.34
2018-08-11T00:52:25.172Z,57.46
2018-08-11T00:52:35.202Z,57.46
2018-08-11T00:52:44.933Z,57.46
2018-08-11T00:52:55.204Z,57.44
2018-08-11T00:53:05.264Z,57.54
2018-08-11T00:53:15.263Z,57.37
2018-08-11T00:53:25.232Z,57.24
2018-08-11T00:53:35.282Z,57.44
2018-08-11T00:53:45.292Z,57.56
2018-08-11T00:53:55.342Z,57.34
2018-08-11T00:54:05.341Z,57.37
2018-08-11T00:54:15.073Z,57.44
2018-08-11T00:54:25.076Z,57.24
2018-08-11T00:54:35.354Z,57.28
2018-08-11T00:54:45.405Z,57.37
2018-08-11T00:54:55.392Z,57.34
2018-08-11T00:55:05.413Z,57.44
2018-08-11T00:55:15.422Z,57.34
2018-08-11T00:55:25.432Z,57.24
2018-08-11T00:55:35.433Z,57.28
2018-08-11T00:55:45.460Z,57.24
2018-08-11T00:55:55.468Z,57.34
2018-08-11T00:56:05.512Z,57.34
2018-08-11T00:56:15.222Z,57.37
2018-08-11T00:56:25.259Z,57.54
2018-08-11T00:56:35.502Z,57.24
2018-08-11T00:56:45.262Z,57.28
2018-08-11T00:56:55.552Z,57.56
2018-08-11T00:57:05.545Z,57.24
2018-08-11T00:57:15.712Z,57.56
2018-08-11T00:57:25.591Z,57.56
2018-08-11T00:57:35.607Z,57.54
2018-08-11T00:57:45.615Z,57.56
2018-08-11T00:57:55.672Z,57.54
2018-08-11T00:58:05.387Z,57.56
2018-08-11T00:58:15.643Z,57.44
2018-08-11T00:58:25.685Z,57.56
2018-08-11T00:58:35.683Z,57.28
2018-08-11T00:58:45.693Z,57.54
2018-08-11T00:58:55.704Z,57.46
2018-08-11T00:59:05.740Z,57.56
2018-08-11T00:59:15.713Z,57.56
2018-08-11T00:59:25.744Z,57.37
2018-08-11T00:59:35.762Z,57.56
2018-08-11T00:59:45.763Z,57.37
2018-08-11T00:59:55.783Z,57.28
2018-08-11T01:00:05.844Z,57.37
2018-08-11T01:00:15.803Z,57.44
2018-08-11T01:00:25.846Z,57.24
2018-08-11T01:00:35.845Z,57.28
2018-08-11T01:00:45.875Z,57.44
2018-08-11T01:00:55.881Z,57.28
2018-08-11T01:01:05.907Z,57.37
2018-08-11T01:01:15.924Z,57.24
2018-08-11T01:01:25.934Z,57.24
2018-08-11T01:01:35.913Z,57.24
2018-08-11T01:01:45.974Z,57.28
2018-08-11T01:01:55.953Z,57.37
2018-08-11T01:02:06.064Z,57.46
2018-08-11T01:02:16.040Z,57.46
2018-08-11T01:02:26.217Z,57.37
2018-08-11T01:02:36.024Z,57.37
2018-08-11T01:02:46.022Z,57.24
2018-08-11T01:02:56.062Z,57.28
2018-08-11T01:03:06.033Z,57.37
2018-08-11T01:03:16.093Z,57.37
2018-08-11T01:03:26.104Z,57.34
2018-08-11T01:03:36.096Z,57.37
2018-08-11T01:03:46.094Z,57.37
2018-08-11T01:03:55.863Z,57.44
2018-08-11T01:04:06.133Z,57.46
2018-08-11T01:04:16.163Z,57.46
2018-08-11T01:04:26.196Z,57.54
2018-08-11T01:04:36.204Z,57.37
2018-08-11T01:04:46.194Z,57.34
2018-08-11T01:04:56.224Z,57.34
2018-08-11T01:05:06.251Z,57.54
2018-08-11T01:05:15.975Z,57.44
2018-08-11T01:05:26.244Z,57.44
2018-08-11T01:05:36.272Z,57.37
2018-08-11T01:05:46.285Z,57.24
2018-08-11T01:05:56.275Z,57.37
2018-08-11T01:06:06.305Z,57.24
2018-08-11T01:06:16.300Z,57.56
2018-08-11T01:06:26.324Z,57.37
2018-08-11T01:06:36.344Z,57.37
2018-08-11T01:06:46.363Z,57.56
2018-08-11T01:06:56.461Z,57.37
2018-08-11T01:07:06.394Z,57.37
2018-08-11T01:07:16.443Z,57.46
2018-08-11T01:07:26.450Z,57.46
2018-08-11T01:07:36.434Z,57.44
2018-08-11T01:07:46.449Z,57.24
2018-08-11T01:07:56.454Z,57.37
2018-08-11T01:08:06.475Z,57.24
2018-08-11T01:08:16.514Z,57.18
2018-08-11T01:08:26.253Z,57.44
2018-08-11T01:08:36.524Z,57.28
2018-08-11T01:08:46.554Z,57.54
2018-08-11T01:08:56.545Z,57.54
2018-08-11T01:09:06.584Z,57.54
2018-08-11T01:09:16.594Z,57.54
2018-08-11T01:09:26.575Z,57.28
2018-08-11T01:09:36.586Z,57.28
2018-08-11T01:09:46.353Z,57.46
2018-08-11T01:09:56.624Z,57.46
2018-08-11T01:10:06.666Z,57.44
2018-08-11T01:10:16.661Z,57.46
2018-08-11T01:10:26.685Z,57.44
2018-08-11T01:10:36.684Z,57.46
2018-08-11T01:10:46.790Z,57.46
2018-08-11T01:10:56.885Z,57.46
2018-08-11T01:11:06.725Z,57.56
2018-08-11T01:11:16.455Z,57.44
2018-08-11T01:11:26.764Z,57.46
2018-08-11T01:11:36.475Z,57.37
2018-08-11T01:11:46.765Z,57.56
2018-08-11T01:11:56.815Z,57.46
2018-08-11T01:12:06.786Z,57.44
2018-08-11T01:12:16.815Z,57.46
2018-08-11T01:12:26.810Z,57.34
2018-08-11T01:12:36.887Z,57.46
2018-08-11T01:12:46.895Z,57.56
2018-08-11T01:12:56.875Z,57.34
2018-08-11T01:13:06.885Z,57.44
2018-08-11T01:13:16.896Z,57.44
2018-08-11T01:13:26.915Z,57.37
2018-08-11T01:13:36.930Z,57.56
2018-08-11T01:13:46.926Z,57.54
2018-08-11T01:13:56.955Z,57.37
2018-08-11T01:14:06.979Z,57.46
2018-08-11T01:14:16.975Z,57.37
2018-08-11T01:14:27.001Z,57.34
2018-08-11T01:14:37.033Z,57.46
2018-08-11T01:14:47.045Z,57.37
2018-08-11T01:14:57.036Z,57.56
2018-08-11T01:15:06.795Z,57.46
2018-08-11T01:15:17.056Z,57.34
2018-08-11T01:15:27.085Z,57.44
2018-08-11T01:15:37.104Z,57.46
2018-08-11T01:15:46.825Z,57.37
2018-08-11T01:15:57.135Z,57.44
2018-08-11T01:16:07.131Z,57.34
2018-08-11T01:16:17.136Z,57.46
2018-08-11T01:16:27.156Z,57.73
2018-08-11T01:16:37.220Z,57.46
2018-08-11T01:16:46.896Z,57.34
2018-08-11T01:16:57.216Z,57.24
2018-08-11T01:17:07.226Z,57.56
2018-08-11T01:17:17.225Z,57.28
2018-08-11T01:17:27.235Z,57.34
2018-08-11T01:17:37.251Z,57.34
2018-08-11T01:17:47.294Z,57.37
2018-08-11T01:17:57.255Z,57.37
2018-08-11T01:18:07.294Z,57.37
2018-08-11T01:18:17.315Z,57.37
2018-08-11T01:18:27.321Z,57.46
2018-08-11T01:18:37.316Z,57.46
2018-08-11T01:18:47.075Z,57.37
2018-08-11T01:18:57.065Z,57.37
2018-08-11T01:19:07.366Z,57.46
2018-08-11T01:19:17.408Z,57.44
2018-08-11T01:19:27.395Z,57.56
2018-08-11T01:19:37.405Z,57.44
2018-08-11T01:19:47.456Z,57.46
2018-08-11T01:19:57.425Z,57.46
2018-08-11T01:20:07.458Z,57.28
2018-08-11T01:20:17.446Z,57.46
2018-08-11T01:20:27.487Z,57.46
2018-08-11T01:20:37.507Z,57.28
2018-08-11T01:20:47.496Z,57.46
2018-08-11T01:20:57.526Z,57.73
2018-08-11T01:21:07.546Z,57.46
2018-08-11T01:21:17.541Z,57.46
2018-08-11T01:21:27.555Z,57.46
2018-08-11T01:21:37.546Z,57.46
2018-08-11T01:21:47.626Z,57.46
2018-08-11T01:21:57.606Z,57.46
2018-08-11T01:22:07.637Z,57.95
2018-08-11T01:22:17.657Z,57.46
2018-08-11T01:22:27.672Z,57.86
2018-08-11T01:22:37.667Z,57.56
2018-08-11T01:22:47.677Z,57.46
2018-08-11T01:22:57.706Z,57.76
2018-08-11T01:23:07.698Z,57.66
2018-08-11T01:23:17.722Z,57.76
2018-08-11T01:23:27.793Z,57.46
2018-08-11T01:23:37.831Z,57.66
2018-08-11T01:23:47.759Z,57.66
2018-08-11T01:23:57.784Z,57.63
2018-08-11T01:24:07.819Z,57.63
2018-08-11T01:24:17.826Z,57.46
2018-08-11T01:24:27.808Z,57.76
2018-08-11T01:24:37.847Z,57.76
2018-08-11T01:24:47.840Z,57.66
2018-08-11T01:24:57.864Z,57.56
2018-08-11T01:25:07.857Z,57.66
2018-08-11T01:25:17.878Z,57.63
2018-08-11T01:25:27.634Z,57.63
2018-08-11T01:25:37.946Z,57.66
2018-08-11T01:25:47.905Z,57.66
2018-08-11T01:25:57.917Z,57.66
2018-08-11T01:26:07.950Z,57.66
2018-08-11T01:26:17.967Z,57.66
2018-08-11T01:26:27.967Z,57.66
2018-08-11T01:26:37.977Z,57.63
2018-08-11T01:26:48.003Z,57.66
2018-08-11T01:26:58.007Z,57.66
2018-08-11T01:27:08.037Z,57.63
2018-08-11T01:27:18.310Z,57.66
2018-08-11T01:27:28.031Z,57.63
2018-08-11T01:27:38.089Z,57.54
2018-08-11T01:27:48.098Z,57.56
2018-08-11T01:27:58.100Z,57.56
2018-08-11T01:28:08.123Z,57.66
2018-08-11T01:28:18.158Z,57.66
2018-08-11T01:28:28.127Z,57.66
2018-08-11T01:28:38.148Z,57.63
2018-08-11T01:28:48.178Z,57.66
2018-08-11T01:28:58.188Z,57.66
2018-08-11T01:29:08.178Z,57.66
2018-08-11T01:29:18.218Z,57.66
2018-08-11T01:29:28.209Z,57.63
2018-08-11T01:29:38.229Z,57.46
2018-08-11T01:29:47.978Z,57.76
2018-08-11T01:29:58.285Z,57.56
2018-08-11T01:30:08.297Z,57.56
2018-08-11T01:30:18.313Z,57.56
2018-08-11T01:30:28.317Z,57.66
2018-08-11T01:30:38.339Z,57.56
2018-08-11T01:30:48.338Z,57.66
2018-08-11T01:30:58.367Z,57.66
2018-08-11T01:31:08.338Z,57.63
2018-08-11T01:31:18.406Z,57.56
2018-08-11T01:31:28.377Z,57.46
2018-08-11T01:31:38.110Z,57.56
2018-08-11T01:31:48.419Z,57.56
2018-08-11T01:31:58.437Z,57.46
2018-08-11T01:32:08.448Z,57.46
2018-08-11T01:32:18.478Z,57.46
2018-08-11T01:32:28.497Z,57.56
2018-08-11T01:32:38.457Z,57.86
2018-08-11T01:32:48.526Z,57.56
2018-08-11T01:32:58.538Z,57.46
2018-08-11T01:33:08.548Z,57.46
2018-08-11T01:33:18.548Z,57.56
2018-08-11T01:33:28.547Z,57.46
2018-08-11T01:33:38.594Z,57.46
2018-08-11T01:33:48.581Z,57.56
2018-08-11T01:33:58.604Z,57.56
2018-08-11T01:34:08.598Z,57.86
2018-08-11T01:34:18.627Z,57.56
2018-08-11T01:34:28.637Z,57.56
2018-08-11T01:34:38.658Z,57.86
2018-08-11T01:34:48.638Z,57.66
2018-08-11T01:34:58.670Z,57.46
2018-08-11T01:35:08.709Z,57.76
2018-08-11T01:35:18.699Z,57.76
2018-08-11T01:35:28.698Z,57.66
2018-08-11T01:35:38.748Z,57.46
2018-08-11T01:35:48.779Z,57.66
2018-08-11T01:35:58.768Z,57.66
2018-08-11T01:36:08.798Z,57.66
2018-08-11T01:36:18.798Z,57.76
2018-08-11T01:36:28.809Z,57.46
2018-08-11T01:36:38.837Z,57.56
2018-08-11T01:36:48.840Z,57.46
2018-08-11T01:36:58.829Z,57.66
2018-08-11T01:37:08.879Z,57.66
2018-08-11T01:37:18.889Z,57.46
2018-08-11T01:37:28.868Z,57.44
2018-08-11T01:37:38.889Z,57.66
2018-08-11T01:37:48.947Z,57.56
2018-08-11T01:37:58.929Z,57.46
2018-08-11T01:38:08.939Z,57.56
2018-08-11T01:38:18.939Z,57.56
2018-08-11T01:38:28.959Z,57.56
2018-08-11T01:38:39.029Z,57.66
2018-08-11T01:38:48.989Z,57.56
2018-08-11T01:38:59.010Z,57.56
2018-08-11T01:39:09.019Z,57.54
2018-08-11T01:39:19.041Z,57.66
2018-08-11T01:39:28.769Z,57.66
2018-08-11T01:39:39.067Z,57.56
2018-08-11T01:39:49.087Z,57.46
2018-08-11T01:39:59.101Z,57.66
2018-08-11T01:40:09.119Z,57.56
2018-08-11T01:40:19.120Z,57.56
2018-08-11T01:40:29.128Z,57.66
2018-08-11T01:40:39.148Z,57.46
2018-08-11T01:40:49.152Z,57.66
2018-08-11T01:40:59.162Z,57.56
2018-08-11T01:41:09.201Z,57.56
2018-08-11T01:41:19.211Z,57.46
2018-08-11T01:41:28.928Z,57.46
2018-08-11T01:41:39.202Z,57.46
2018-08-11T01:41:49.229Z,57.46
2018-08-11T01:41:59.252Z,57.66
2018-08-11T01:42:09.007Z,57.86
2018-08-11T01:42:19.308Z,57.46
2018-08-11T01:42:29.289Z,57.46
2018-08-11T01:42:39.339Z,57.46
2018-08-11T01:42:49.322Z,57.46
2018-08-11T01:42:59.320Z,57.66
2018-08-11T01:43:09.379Z,57.46
2018-08-11T01:43:19.339Z,57.46
2018-08-11T01:43:29.380Z,57.46
2018-08-11T01:43:39.410Z,57.46
2018-08-11T01:43:49.397Z,57.56
2018-08-11T01:43:59.409Z,57.66
2018-08-11T01:44:09.534Z,57.46
2018-08-11T01:44:19.621Z,57.46
2018-08-11T01:44:29.450Z,57.46
2018-08-11T01:44:39.479Z,57.56
2018-08-11T01:44:49.460Z,57.56
2018-08-11T01:44:59.480Z,57.56
2018-08-11T01:45:09.539Z,57.46
2018-08-11T01:45:19.509Z,57.56
2018-08-11T01:45:29.579Z,57.56
2018-08-11T01:45:39.571Z,57.56
2018-08-11T01:45:49.619Z,57.56
2018-08-11T01:45:59.590Z,57.46
2018-08-11T01:46:09.600Z,57.76
2018-08-11T01:46:19.619Z,57.56
2018-08-11T01:46:29.350Z,57.76
2018-08-11T01:46:39.629Z,57.46
2018-08-11T01:46:49.691Z,57.56
2018-08-11T01:46:59.688Z,57.46
2018-08-11T01:47:09.679Z,57.56
2018-08-11T01:47:19.748Z,57.56
2018-08-11T01:47:29.699Z,57.46
2018-08-11T01:47:39.710Z,57.66
2018-08-11T01:47:49.765Z,57.46
2018-08-11T01:47:59.744Z,57.56
2018-08-11T01:48:09.807Z,57.56
2018-08-11T01:48:19.806Z,57.66
2018-08-11T01:48:29.794Z,57.56
2018-08-11T01:48:39.800Z,57.56
2018-08-11T01:48:49.563Z,57.66
2018-08-11T01:48:59.849Z,57.56
2018-08-11T01:49:09.850Z,57.56
2018-08-11T01:49:19.869Z,57.56
2018-08-11T01:49:29.900Z,57.56
2018-08-11T01:49:39.883Z,57.56
2018-08-11T01:49:49.940Z,57.56
2018-08-11T01:49:59.950Z,57.56
2018-08-11T01:50:09.939Z,57.66
2018-08-11T01:50:19.948Z,57.56
2018-08-11T01:50:29.971Z,57.56
2018-08-11T01:50:39.710Z,57.56
2018-08-11T01:50:50.002Z,57.56
2018-08-11T01:51:00.004Z,57.66
2018-08-11T01:51:09.981Z,57.46
2018-08-11T01:51:20.050Z,57.46
2018-08-11T01:51:29.763Z,57.56
2018-08-11T01:51:40.051Z,57.56
2018-08-11T01:51:50.062Z,57.56
2018-08-11T01:52:00.061Z,57.56
2018-08-11T01:52:10.138Z,57.66
2018-08-11T01:52:20.149Z,57.56
2018-08-11T01:52:30.150Z,57.66
2018-08-11T01:52:40.181Z,57.46
2018-08-11T01:52:50.160Z,57.46
2018-08-11T01:53:00.161Z,57.56
2018-08-11T01:53:10.190Z,57.56
2018-08-11T01:53:20.180Z,57.56
2018-08-11T01:53:30.210Z,57.56
2018-08-11T01:53:40.210Z,57.56
2018-08-11T01:53:50.232Z,57.56
2018-08-11T01:54:00.250Z,57.56
2018-08-11T01:54:09.999Z,57.66
2018-08-11T01:54:20.261Z,57.66
2018-08-11T01:54:30.274Z,57.56
2018-08-11T01:54:40.280Z,57.56
2018-08-11T01:54:50.316Z,57.66
2018-08-11T01:55:00.320Z,57.56
2018-08-11T01:55:10.372Z,57.66
2018-08-11T01:55:20.321Z,57.66
2018-08-11T01:55:30.371Z,57.76
2018-08-11T01:55:40.384Z,57.66
2018-08-11T01:55:50.408Z,57.66
2018-08-11T01:56:00.391Z,57.66
2018-08-11T01:56:10.441Z,57.56
2018-08-11T01:56:20.440Z,57.66
2018-08-11T01:56:30.448Z,57.66
2018-08-11T01:56:40.611Z,57.66
2018-08-11T01:56:50.481Z,57.46
2018-08-11T01:57:00.483Z,57.66
2018-08-11T01:57:10.211Z,57.66
2018-08-11T01:57:20.520Z,57.56
2018-08-11T01:57:30.501Z,57.66
2018-08-11T01:57:40.553Z,57.46
2018-08-11T01:57:50.562Z,57.56
2018-08-11T01:58:00.552Z,57.46
2018-08-11T01:58:10.572Z,57.66
2018-08-11T01:58:20.572Z,57.46
2018-08-11T01:58:30.624Z,57.56
2018-08-11T01:58:40.631Z,57.37
2018-08-11T01:58:50.647Z,57.56
2018-08-11T01:59:00.668Z,57.56
2018-08-11T01:59:10.662Z,57.56
2018-08-11T01:59:20.693Z,57.56
2018-08-11T01:59:30.708Z,57.56
2018-08-11T01:59:40.702Z,57.46
2018-08-11T01:59:50.732Z,57.46
2018-08-11T02:00:00.762Z,57.56
2018-08-11T02:00:10.721Z,57.46
2018-08-11T02:00:20.772Z,57.56
2018-08-11T02:00:30.761Z,57.56
2018-08-11T02:00:40.801Z,57.46
2018-08-11T02:00:50.812Z,57.66
2018-08-11T02:01:00.861Z,57.46
2018-08-11T02:01:10.852Z,57.46
2018-08-11T02:01:20.862Z,57.56
2018-08-11T02:01:30.832Z,57.56
2018-08-11T02:01:40.862Z,57.56
2018-08-11T02:01:50.861Z,57.56
2018-08-11T02:02:00.892Z,57.46
2018-08-11T02:02:10.902Z,57.56
2018-08-11T02:02:21.051Z,57.56
2018-08-11T02:02:30.931Z,57.46
2018-08-11T02:02:40.956Z,57.56
2018-08-11T02:02:50.969Z,57.46
2018-08-11T02:03:00.983Z,57.56
2018-08-11T02:03:10.989Z,57.46
2018-08-11T02:03:21.014Z,57.56
2018-08-11T02:03:31.042Z,57.46
2018-08-11T02:03:41.021Z,57.46
2018-08-11T02:03:51.022Z,57.56
2018-08-11T02:04:01.071Z,57.56
2018-08-11T02:04:11.061Z,57.56
2018-08-11T02:04:21.080Z,57.56
2018-08-11T02:04:31.092Z,57.56
2018-08-11T02:04:41.102Z,57.56
2018-08-11T02:04:51.131Z,57.56
2018-08-11T02:05:01.142Z,57.56
2018-08-11T02:05:11.153Z,57.56
2018-08-11T02:05:21.172Z,57.56
2018-08-11T02:05:31.172Z,57.56
2018-08-11T02:05:41.174Z,57.56
2018-08-11T02:05:51.192Z,57.46
2018-08-11T02:06:01.223Z,57.56
2018-08-11T02:06:11.253Z,57.56
2018-08-11T02:06:21.256Z,57.56
2018-08-11T02:06:31.293Z,57.56
2018-08-11T02:06:41.283Z,57.56
2018-08-11T02:06:51.277Z,57.56
2018-08-11T02:07:01.319Z,57.56
2018-08-11T02:07:11.324Z,57.28
2018-08-11T02:07:21.615Z,57.56
2018-08-11T02:07:31.323Z,57.28
2018-08-11T02:07:41.343Z,57.46
2018-08-11T02:07:51.363Z,57.56
2018-08-11T02:08:01.373Z,57.56
2018-08-11T02:08:11.120Z,57.56
2018-08-11T02:08:21.423Z,57.46
2018-08-11T02:08:31.435Z,57.56
2018-08-11T02:08:41.422Z,57.56
2018-08-11T02:08:51.193Z,57.56